sensor_id;sensor_type;location;lat;lon;timestamp;pressure;altitude;pressure_sealevel;temperature;humidity
12219;BME280;6172;42.646;23.344;2022-07-29T00:00:47;94772.84;;;16.90;100.00
12219;BME280;6172;42.646;23.344;2022-07-29T00:03:14;94769.44;;;16.77;100.00
12219;BME280;6172;42.646;23.344;2022-07-29T00:05:41;94778.50;;;16.87;100.00
12219;BME280;6172;42.646;23.344;2022-07-29T00:08:08;94789.88;;;16.98;100.00
12219;BME280;6172;42.646;23.344;2022-07-29T00:10:35;94781.41;;;16.83;100.00
12219;BME280;6172;42.646;23.344;2022-07-29T00:13:04;94794.88;;;16.90;100.00
12219;BME280;6172;42.646;23.344;2022-07-29T00:15:31;94785.41;;;16.91;100.00
12219;BME280;6172;42.646;23.344;2022-07-29T00:17:57;94794.09;;;16.90;100.00
12219;BME280;6172;42.646;23.344;2022-07-29T00:20:24;94806.13;;;17.05;100.00
12219;BME280;6172;42.646;23.344;2022-07-29T00:22:51;94802.13;;;17.06;100.00
12219;BME280;6172;42.646;23.344;2022-07-29T00:25:18;94797.47;;;17.15;100.00
12219;BME280;6172;42.646;23.344;2022-07-29T00:27:45;94794.25;;;17.26;100.00
12219;BME280;6172;42.646;23.344;2022-07-29T00:30:14;94799.50;;;17.33;100.00
12219;BME280;6172;42.646;23.344;2022-07-29T00:32:41;94784.06;;;17.45;100.00
12219;BME280;6172;42.646;23.344;2022-07-29T00:35:08;94779.03;;;17.52;100.00
12219;BME280;6172;42.646;23.344;2022-07-29T00:37:53;94779.50;;;17.51;100.00
12219;BME280;6172;42.646;23.344;2022-07-29T00:40:20;94783.38;;;17.62;100.00
12219;BME280;6172;42.646;23.344;2022-07-29T00:42:48;94786.28;;;17.68;100.00
12219;BME280;6172;42.646;23.344;2022-07-29T00:45:17;94780.47;;;17.75;100.00
12219;BME280;6172;42.646;23.344;2022-07-29T00:47:45;94786.47;;;17.82;100.00
12219;BME280;6172;42.646;23.344;2022-07-29T00:50:13;94779.56;;;17.69;100.00
12219;BME280;6172;42.646;23.344;2022-07-29T00:52:41;94780.81;;;17.77;100.00
12219;BME280;6172;42.646;23.344;2022-07-29T00:55:10;94790.56;;;17.60;100.00
12219;BME280;6172;42.646;23.344;2022-07-29T00:57:38;94790.47;;;17.42;100.00
12219;BME280;6172;42.646;23.344;2022-07-29T01:00:07;94794.78;;;17.43;100.00
12219;BME280;6172;42.646;23.344;2022-07-29T01:02:36;94787.63;;;17.54;100.00
12219;BME280;6172;42.646;23.344;2022-07-29T01:05:04;94771.84;;;17.55;100.00
12219;BME280;6172;42.646;23.344;2022-07-29T01:07:32;94779.81;;;17.53;100.00
12219;BME280;6172;42.646;23.344;2022-07-29T01:10:01;94789.06;;;17.59;100.00
12219;BME280;6172;42.646;23.344;2022-07-29T01:12:30;94782.25;;;17.51;100.00
12219;BME280;6172;42.646;23.344;2022-07-29T01:14:58;94787.75;;;17.51;100.00
12219;BME280;6172;42.646;23.344;2022-07-29T01:17:28;94784.06;;;17.45;100.00
12219;BME280;6172;42.646;23.344;2022-07-29T01:20:03;94782.22;;;17.32;100.00
12219;BME280;6172;42.646;23.344;2022-07-29T01:22:47;94789.41;;;17.39;100.00
12219;BME280;6172;42.646;23.344;2022-07-29T01:25:30;94786.19;;;17.41;100.00
12219;BME280;6172;42.646;23.344;2022-07-29T01:28:13;94789.88;;;17.38;100.00
12219;BME280;6172;42.646;23.344;2022-07-29T01:30:47;94785.69;;;17.24;100.00
12219;BME280;6172;42.646;23.344;2022-07-29T01:33:17;94780.66;;;17.31;100.00
12219;BME280;6172;42.646;23.344;2022-07-29T01:36:02;94785.38;;;17.22;100.00
12219;BME280;6172;42.646;23.344;2022-07-29T01:38:33;94779.63;;;16.98;100.00
12219;BME280;6172;42.646;23.344;2022-07-29T01:41:05;94775.84;;;17.05;100.00
12219;BME280;6172;42.646;23.344;2022-07-29T01:43:39;94777.53;;;17.11;100.00
12219;BME280;6172;42.646;23.344;2022-07-29T01:46:13;94769.78;;;16.88;100.00
12219;BME280;6172;42.646;23.344;2022-07-29T01:48:46;94791.44;;;16.77;100.00
12219;BME280;6172;42.646;23.344;2022-07-29T01:51:17;94788.69;;;16.56;100.00
12219;BME280;6172;42.646;23.344;2022-07-29T01:53:51;94789.09;;;16.67;100.00
12219;BME280;6172;42.646;23.344;2022-07-29T01:56:23;94785.75;;;16.72;100.00
12219;BME280;6172;42.646;23.344;2022-07-29T01:58:52;94787.34;;;16.82;100.00
12219;BME280;6172;42.646;23.344;2022-07-29T02:01:24;94784.47;;;16.85;100.00
12219;BME280;6172;42.646;23.344;2022-07-29T02:03:53;94790.56;;;16.80;100.00
12219;BME280;6172;42.646;23.344;2022-07-29T02:06:22;94779.31;;;16.96;100.00
12219;BME280;6172;42.646;23.344;2022-07-29T02:08:51;94784.78;;;16.87;100.00
12219;BME280;6172;42.646;23.344;2022-07-29T02:11:19;94784.28;;;16.80;100.00
12219;BME280;6172;42.646;23.344;2022-07-29T02:13:47;94772.72;;;16.94;100.00
12219;BME280;6172;42.646;23.344;2022-07-29T02:16:17;94758.84;;;17.06;100.00
12219;BME280;6172;42.646;23.344;2022-07-29T02:18:50;94758.69;;;17.10;100.00
12219;BME280;6172;42.646;23.344;2022-07-29T02:21:21;94754.13;;;17.07;100.00
12219;BME280;6172;42.646;23.344;2022-07-29T02:23:51;94759.16;;;17.08;100.00
12219;BME280;6172;42.646;23.344;2022-07-29T02:26:20;94754.91;;;17.16;100.00
12219;BME280;6172;42.646;23.344;2022-07-29T02:28:50;94763.53;;;16.97;100.00
12219;BME280;6172;42.646;23.344;2022-07-29T02:31:21;94771.34;;;16.89;100.00
12219;BME280;6172;42.646;23.344;2022-07-29T02:33:51;94767.63;;;16.83;100.00
12219;BME280;6172;42.646;23.344;2022-07-29T02:36:21;94772.84;;;16.38;100.00
12219;BME280;6172;42.646;23.344;2022-07-29T02:38:50;94776.47;;;16.14;100.00
12219;BME280;6172;42.646;23.344;2022-07-29T02:41:20;94782.38;;;16.03;100.00
12219;BME280;6172;42.646;23.344;2022-07-29T02:43:54;94760.94;;;15.98;100.00
12219;BME280;6172;42.646;23.344;2022-07-29T02:46:27;94758.44;;;15.91;100.00
12219;BME280;6172;42.646;23.344;2022-07-29T02:49:00;94748.59;;;16.03;100.00
12219;BME280;6172;42.646;23.344;2022-07-29T02:51:33;94761.38;;;16.18;100.00
12219;BME280;6172;42.646;23.344;2022-07-29T02:54:06;94751.94;;;16.19;100.00
12219;BME280;6172;42.646;23.344;2022-07-29T02:56:34;94754.88;;;16.25;100.00
12219;BME280;6172;42.646;23.344;2022-07-29T02:59:06;94743.09;;;16.24;100.00
12219;BME280;6172;42.646;23.344;2022-07-29T03:01:39;94747.13;;;16.32;100.00
12219;BME280;6172;42.646;23.344;2022-07-29T03:04:09;94749.06;;;16.23;100.00
12219;BME280;6172;42.646;23.344;2022-07-29T03:06:38;94744.59;;;16.16;100.00
12219;BME280;6172;42.646;23.344;2022-07-29T03:09:07;94747.19;;;16.20;100.00
12219;BME280;6172;42.646;23.344;2022-07-29T03:11:38;94749.25;;;16.07;100.00
12219;BME280;6172;42.646;23.344;2022-07-29T03:14:05;94746.44;;;16.19;100.00
12219;BME280;6172;42.646;23.344;2022-07-29T03:16:33;94742.41;;;16.33;100.00
12219;BME280;6172;42.646;23.344;2022-07-29T03:19:02;94754.91;;;16.34;100.00
12219;BME280;6172;42.646;23.344;2022-07-29T03:21:31;94765.88;;;16.25;100.00
12219;BME280;6172;42.646;23.344;2022-07-29T03:23:58;94763.94;;;16.13;100.00
12219;BME280;6172;42.646;23.344;2022-07-29T03:26:25;94766.38;;;16.11;100.00
12219;BME280;6172;42.646;23.344;2022-07-29T03:28:52;94771.75;;;16.14;100.00
12219;BME280;6172;42.646;23.344;2022-07-29T03:31:19;94785.84;;;16.16;100.00
12219;BME280;6172;42.646;23.344;2022-07-29T03:33:46;94771.19;;;16.19;100.00
12219;BME280;6172;42.646;23.344;2022-07-29T03:36:12;94773.16;;;16.19;100.00
12219;BME280;6172;42.646;23.344;2022-07-29T03:38:42;94778.16;;;16.33;100.00
12219;BME280;6172;42.646;23.344;2022-07-29T03:41:11;94779.75;;;16.43;100.00
12219;BME280;6172;42.646;23.344;2022-07-29T03:43:41;94780.38;;;16.47;100.00
12219;BME280;6172;42.646;23.344;2022-07-29T03:46:10;94773.09;;;16.53;100.00
12219;BME280;6172;42.646;23.344;2022-07-29T03:48:42;94773.53;;;16.51;100.00
12219;BME280;6172;42.646;23.344;2022-07-29T03:51:13;94778.66;;;16.40;100.00
12219;BME280;6172;42.646;23.344;2022-07-29T03:53:42;94778.03;;;16.36;100.00
12219;BME280;6172;42.646;23.344;2022-07-29T03:56:10;94783.97;;;16.56;100.00
12219;BME280;6172;42.646;23.344;2022-07-29T03:58:38;94770.47;;;16.49;100.00
12219;BME280;6172;42.646;23.344;2022-07-29T04:01:06;94773.00;;;16.65;100.00
12219;BME280;6172;42.646;23.344;2022-07-29T04:03:34;94781.53;;;16.58;100.00
12219;BME280;6172;42.646;23.344;2022-07-29T04:06:02;94786.13;;;16.61;100.00
12219;BME280;6172;42.646;23.344;2022-07-29T04:08:28;94779.19;;;16.69;100.00
12219;BME280;6172;42.646;23.344;2022-07-29T04:10:57;94779.19;;;16.69;100.00
12219;BME280;6172;42.646;23.344;2022-07-29T04:13:24;94782.78;;;16.88;100.00
12219;BME280;6172;42.646;23.344;2022-07-29T04:15:51;94781.72;;;16.85;100.00
12219;BME280;6172;42.646;23.344;2022-07-29T04:18:18;94782.88;;;16.75;100.00
12219;BME280;6172;42.646;23.344;2022-07-29T04:20:48;94782.91;;;16.84;100.00
12219;BME280;6172;42.646;23.344;2022-07-29T04:23:16;94779.44;;;16.93;100.00
12219;BME280;6172;42.646;23.344;2022-07-29T04:25:42;94775.06;;;17.04;100.00
12219;BME280;6172;42.646;23.344;2022-07-29T04:28:11;94771.34;;;16.98;100.00
12219;BME280;6172;42.646;23.344;2022-07-29T04:30:38;94777.97;;;17.10;100.00
12219;BME280;6172;42.646;23.344;2022-07-29T04:33:05;94771.28;;;17.20;100.00
12219;BME280;6172;42.646;23.344;2022-07-29T04:35:34;94773.75;;;17.18;100.00
12219;BME280;6172;42.646;23.344;2022-07-29T04:38:02;94771.78;;;17.27;100.00
12219;BME280;6172;42.646;23.344;2022-07-29T04:40:29;94778.56;;;17.45;100.00
12219;BME280;6172;42.646;23.344;2022-07-29T04:42:58;94772.25;;;17.35;100.00
12219;BME280;6172;42.646;23.344;2022-07-29T04:45:27;94778.13;;;17.55;100.00
12219;BME280;6172;42.646;23.344;2022-07-29T04:47:54;94779.28;;;17.76;100.00
12219;BME280;6172;42.646;23.344;2022-07-29T04:50:21;94767.03;;;17.86;100.00
12219;BME280;6172;42.646;23.344;2022-07-29T04:52:48;94767.03;;;18.04;100.00
12219;BME280;6172;42.646;23.344;2022-07-29T04:55:15;94771.16;;;18.08;100.00
12219;BME280;6172;42.646;23.344;2022-07-29T04:57:41;94762.59;;;17.97;100.00
12219;BME280;6172;42.646;23.344;2022-07-29T05:00:09;94776.69;;;18.08;100.00
12219;BME280;6172;42.646;23.344;2022-07-29T05:02:38;94771.16;;;18.08;100.00
12219;BME280;6172;42.646;23.344;2022-07-29T05:05:05;94771.63;;;18.07;100.00
12219;BME280;6172;42.646;23.344;2022-07-29T05:07:32;94777.00;;;18.37;100.00
12219;BME280;6172;42.646;23.344;2022-07-29T05:09:59;94769.94;;;18.45;100.00
12219;BME280;6172;42.646;23.344;2022-07-29T05:12:26;94765.94;;;18.55;100.00
12219;BME280;6172;42.646;23.344;2022-07-29T05:14:53;94763.63;;;18.63;100.00
12219;BME280;6172;42.646;23.344;2022-07-29T05:17:20;94771.59;;;18.70;100.00
12219;BME280;6172;42.646;23.344;2022-07-29T05:19:48;94766.03;;;18.88;100.00
12219;BME280;6172;42.646;23.344;2022-07-29T05:22:17;94767.88;;;18.91;100.00
12219;BME280;6172;42.646;23.344;2022-07-29T05:24:44;94760.91;;;18.95;100.00
12219;BME280;6172;42.646;23.344;2022-07-29T05:27:11;94775.47;;;19.05;100.00
12219;BME280;6172;42.646;23.344;2022-07-29T05:29:37;94770.53;;;19.18;100.00
12219;BME280;6172;42.646;23.344;2022-07-29T05:32:05;94766.53;;;19.19;100.00
12219;BME280;6172;42.646;23.344;2022-07-29T05:34:32;94768.81;;;19.29;100.00
12219;BME280;6172;42.646;23.344;2022-07-29T05:37:00;94773.66;;;19.43;100.00
12219;BME280;6172;42.646;23.344;2022-07-29T05:39:27;94757.19;;;19.49;100.00
12219;BME280;6172;42.646;23.344;2022-07-29T05:41:55;94757.53;;;19.42;100.00
12219;BME280;6172;42.646;23.344;2022-07-29T05:44:22;94764.03;;;19.63;100.00
12219;BME280;6172;42.646;23.344;2022-07-29T05:46:49;94761.59;;;19.79;100.00
12219;BME280;6172;42.646;23.344;2022-07-29T05:49:16;94754.09;;;20.70;100.00
12219;BME280;6172;42.646;23.344;2022-07-29T05:51:43;94750.97;;;22.30;100.00
12219;BME280;6172;42.646;23.344;2022-07-29T05:54:12;94742.50;;;23.58;100.00
12219;BME280;6172;42.646;23.344;2022-07-29T05:56:39;94736.66;;;24.73;100.00
12219;BME280;6172;42.646;23.344;2022-07-29T05:59:06;94742.22;;;25.94;90.14
12219;BME280;6172;42.646;23.344;2022-07-29T06:01:33;94738.75;;;26.92;74.79
12219;BME280;6172;42.646;23.344;2022-07-29T06:04:04;94746.44;;;26.86;71.94
12219;BME280;6172;42.646;23.344;2022-07-29T06:06:32;94744.47;;;27.10;68.52
12219;BME280;6172;42.646;23.344;2022-07-29T06:08:59;94745.88;;;26.93;69.33
12219;BME280;6172;42.646;23.344;2022-07-29T06:11:27;94740.88;;;26.75;67.19
12219;BME280;6172;42.646;23.344;2022-07-29T06:13:54;94739.53;;;27.57;61.94
12219;BME280;6172;42.646;23.344;2022-07-29T06:16:21;94738.28;;;28.49;59.03
12219;BME280;6172;42.646;23.344;2022-07-29T06:18:48;94742.22;;;29.46;52.55
12219;BME280;6172;42.646;23.344;2022-07-29T06:21:15;94748.06;;;31.17;47.13
12219;BME280;6172;42.646;23.344;2022-07-29T06:23:42;94736.44;;;31.75;44.25
12219;BME280;6172;42.646;23.344;2022-07-29T06:26:09;94739.88;;;30.47;46.50
12219;BME280;6172;42.646;23.344;2022-07-29T06:28:37;94739.66;;;31.38;45.00
12219;BME280;6172;42.646;23.344;2022-07-29T06:31:05;94741.38;;;31.41;44.41
12219;BME280;6172;42.646;23.344;2022-07-29T06:33:33;94733.75;;;32.46;41.28
12219;BME280;6172;42.646;23.344;2022-07-29T06:36:00;94738.88;;;31.58;42.73
12219;BME280;6172;42.646;23.344;2022-07-29T06:38:27;94727.69;;;31.86;42.79
12219;BME280;6172;42.646;23.344;2022-07-29T06:40:54;94734.69;;;31.92;42.85
12219;BME280;6172;42.646;23.344;2022-07-29T06:43:28;94731.53;;;31.55;44.34
12219;BME280;6172;42.646;23.344;2022-07-29T06:46:01;94728.25;;;31.43;44.07
12219;BME280;6172;42.646;23.344;2022-07-29T06:48:30;94717.66;;;31.57;43.91
12219;BME280;6172;42.646;23.344;2022-07-29T06:50:57;94724.69;;;31.09;44.21
12219;BME280;6172;42.646;23.344;2022-07-29T06:53:25;94730.56;;;29.73;48.15
12219;BME280;6172;42.646;23.344;2022-07-29T06:55:52;94731.63;;;29.96;48.67
12219;BME280;6172;42.646;23.344;2022-07-29T06:58:19;94726.25;;;31.31;44.95
12219;BME280;6172;42.646;23.344;2022-07-29T07:00:46;94730.44;;;31.04;45.89
12219;BME280;6172;42.646;23.344;2022-07-29T07:03:15;94727.53;;;29.97;48.94
12219;BME280;6172;42.646;23.344;2022-07-29T07:05:42;94729.38;;;30.08;48.31
12219;BME280;6172;42.646;23.344;2022-07-29T07:08:09;94718.00;;;30.53;47.02
12219;BME280;6172;42.646;23.344;2022-07-29T07:10:36;94723.63;;;29.74;49.37
12219;BME280;6172;42.646;23.344;2022-07-29T07:13:04;94715.03;;;29.22;50.91
12219;BME280;6172;42.646;23.344;2022-07-29T07:15:31;94722.88;;;28.92;53.12
12219;BME280;6172;42.646;23.344;2022-07-29T07:17:58;94728.28;;;29.53;51.25
12219;BME280;6172;42.646;23.344;2022-07-29T07:20:26;94724.97;;;30.98;46.73
12219;BME280;6172;42.646;23.344;2022-07-29T07:22:53;94718.91;;;31.28;44.65
12219;BME280;6172;42.646;23.344;2022-07-29T07:25:20;94722.03;;;29.47;46.55
12219;BME280;6172;42.646;23.344;2022-07-29T07:27:47;94718.91;;;30.21;45.85
12219;BME280;6172;42.646;23.344;2022-07-29T07:30:14;94718.34;;;30.36;45.79
12219;BME280;6172;42.646;23.344;2022-07-29T07:32:41;94718.91;;;30.21;45.91
12219;BME280;6172;42.646;23.344;2022-07-29T07:35:09;94706.28;;;30.75;43.57
12219;BME280;6172;42.646;23.344;2022-07-29T07:37:38;94715.16;;;31.12;43.60
12219;BME280;6172;42.646;23.344;2022-07-29T07:40:07;94716.38;;;31.04;43.35
12219;BME280;6172;42.646;23.344;2022-07-29T07:42:37;94702.31;;;31.04;42.78
12219;BME280;6172;42.646;23.344;2022-07-29T07:45:05;94719.31;;;31.52;40.93
12219;BME280;6172;42.646;23.344;2022-07-29T07:47:34;94707.81;;;31.50;40.35
12219;BME280;6172;42.646;23.344;2022-07-29T07:50:01;94713.84;;;31.67;40.00
12219;BME280;6172;42.646;23.344;2022-07-29T07:52:29;94705.19;;;31.24;40.71
12219;BME280;6172;42.646;23.344;2022-07-29T07:54:57;94712.31;;;30.32;42.16
12219;BME280;6172;42.646;23.344;2022-07-29T07:57:24;94710.06;;;30.77;42.30
12219;BME280;6172;42.646;23.344;2022-07-29T07:59:51;94717.81;;;31.51;40.54
12219;BME280;6172;42.646;23.344;2022-07-29T08:02:18;94712.16;;;31.72;40.11
12219;BME280;6172;42.646;23.344;2022-07-29T08:04:44;94717.34;;;31.40;40.32
12219;BME280;6172;42.646;23.344;2022-07-29T08:07:12;94709.81;;;31.22;40.62
12219;BME280;6172;42.646;23.344;2022-07-29T08:09:40;94709.16;;;31.70;40.06
12219;BME280;6172;42.646;23.344;2022-07-29T08:12:08;94719.34;;;30.12;42.18
12219;BME280;6172;42.646;23.344;2022-07-29T08:14:35;94697.94;;;31.36;40.15
12219;BME280;6172;42.646;23.344;2022-07-29T08:17:02;94709.38;;;30.51;41.62
12219;BME280;6172;42.646;23.344;2022-07-29T08:19:29;94710.88;;;29.42;43.98
12219;BME280;6172;42.646;23.344;2022-07-29T08:21:56;94709.41;;;30.11;42.91
12219;BME280;6172;42.646;23.344;2022-07-29T08:24:23;94698.56;;;30.28;41.82
12219;BME280;6172;42.646;23.344;2022-07-29T08:27:09;94697.81;;;30.88;41.20
12219;BME280;6172;42.646;23.344;2022-07-29T08:29:36;94711.50;;;30.71;40.26
12219;BME280;6172;42.646;23.344;2022-07-29T08:32:04;94689.88;;;30.53;40.70
12219;BME280;6172;42.646;23.344;2022-07-29T08:34:31;94698.44;;;30.47;40.35
12219;BME280;6172;42.646;23.344;2022-07-29T08:36:58;94704.88;;;31.15;38.11
12219;BME280;6172;42.646;23.344;2022-07-29T08:39:25;94702.44;;;30.98;37.83
12219;BME280;6172;42.646;23.344;2022-07-29T08:41:52;94688.88;;;31.51;37.39
12219;BME280;6172;42.646;23.344;2022-07-29T08:44:21;94699.25;;;30.81;38.66
12219;BME280;6172;42.646;23.344;2022-07-29T08:46:48;94695.31;;;30.51;39.58
12219;BME280;6172;42.646;23.344;2022-07-29T08:49:16;94694.75;;;30.65;39.32
12219;BME280;6172;42.646;23.344;2022-07-29T08:51:43;94699.75;;;30.93;38.33
12219;BME280;6172;42.646;23.344;2022-07-29T08:54:11;94692.69;;;30.99;37.86
12219;BME280;6172;42.646;23.344;2022-07-29T08:56:42;94682.75;;;31.39;37.46
12219;BME280;6172;42.646;23.344;2022-07-29T08:59:10;94683.94;;;31.44;37.72
12219;BME280;6172;42.646;23.344;2022-07-29T09:01:39;94692.22;;;30.75;38.11
12219;BME280;6172;42.646;23.344;2022-07-29T09:04:11;94702.81;;;30.82;38.15
12219;BME280;6172;42.646;23.344;2022-07-29T09:06:43;94691.69;;;30.76;37.69
12219;BME280;6172;42.646;23.344;2022-07-29T09:09:11;94691.88;;;29.03;40.21
12219;BME280;6172;42.646;23.344;2022-07-29T09:11:39;94689.03;;;28.53;41.29
12219;BME280;6172;42.646;23.344;2022-07-29T09:14:06;94676.50;;;28.91;40.67
12219;BME280;6172;42.646;23.344;2022-07-29T09:16:55;94683.13;;;28.75;41.18
12219;BME280;6172;42.646;23.344;2022-07-29T09:19:24;94686.53;;;28.07;43.65
12219;BME280;6172;42.646;23.344;2022-07-29T09:21:53;94686.19;;;28.16;42.88
12219;BME280;6172;42.646;23.344;2022-07-29T09:24:41;94685.72;;;27.40;44.62
12219;BME280;6172;42.646;23.344;2022-07-29T09:27:20;94674.06;;;27.60;45.33
12219;BME280;6172;42.646;23.344;2022-07-29T09:29:48;94678.53;;;27.98;45.05
12219;BME280;6172;42.646;23.344;2022-07-29T09:32:23;94681.16;;;27.90;46.23
12219;BME280;6172;42.646;23.344;2022-07-29T09:34:50;94678.94;;;28.45;45.38
12219;BME280;6172;42.646;23.344;2022-07-29T09:37:26;94672.47;;;29.05;42.67
12219;BME280;6172;42.646;23.344;2022-07-29T09:39:53;94669.59;;;28.92;42.58
12219;BME280;6172;42.646;23.344;2022-07-29T09:42:28;94674.63;;;29.12;41.88
12219;BME280;6172;42.646;23.344;2022-07-29T09:44:55;94666.03;;;29.23;41.72
12219;BME280;6172;42.646;23.344;2022-07-29T09:47:41;94668.16;;;29.04;42.40
12219;BME280;6172;42.646;23.344;2022-07-29T09:50:10;94670.84;;;28.60;43.24
12219;BME280;6172;42.646;23.344;2022-07-29T09:52:45;94663.31;;;28.12;44.18
12219;BME280;6172;42.646;23.344;2022-07-29T09:55:13;94660.97;;;28.35;43.91
12219;BME280;6172;42.646;23.344;2022-07-29T09:57:41;94658.97;;;28.85;43.02
12219;BME280;6172;42.646;23.344;2022-07-29T10:00:10;94663.03;;;29.34;42.09
12219;BME280;6172;42.646;23.344;2022-07-29T10:02:41;94659.47;;;29.34;42.35
12219;BME280;6172;42.646;23.344;2022-07-29T10:05:17;94646.25;;;29.60;43.45
12219;BME280;6172;42.646;23.344;2022-07-29T10:07:46;94657.47;;;30.25;40.62
12219;BME280;6172;42.646;23.344;2022-07-29T10:10:19;94643.75;;;30.09;41.14
12219;BME280;6172;42.646;23.344;2022-07-29T10:12:51;94640.72;;;30.07;41.17
12219;BME280;6172;42.646;23.344;2022-07-29T10:15:21;94634.69;;;30.16;40.66
12219;BME280;6172;42.646;23.344;2022-07-29T10:17:50;94639.19;;;29.41;42.11
12219;BME280;6172;42.646;23.344;2022-07-29T10:20:17;94632.69;;;29.33;42.78
12219;BME280;6172;42.646;23.344;2022-07-29T10:22:44;94622.69;;;29.89;41.13
12219;BME280;6172;42.646;23.344;2022-07-29T10:25:12;94623.72;;;30.38;39.88
12219;BME280;6172;42.646;23.344;2022-07-29T10:27:40;94623.72;;;30.38;40.52
12219;BME280;6172;42.646;23.344;2022-07-29T10:30:09;94619.66;;;31.14;39.24
12219;BME280;6172;42.646;23.344;2022-07-29T10:33:00;94621.56;;;31.19;39.27
12219;BME280;6172;42.646;23.344;2022-07-29T10:35:57;94614.06;;;31.98;36.70
12219;BME280;6172;42.646;23.344;2022-07-29T10:38:42;94613.53;;;32.43;36.15
12219;BME280;6172;42.646;23.344;2022-07-29T10:41:37;94614.38;;;32.15;35.75
12219;BME280;6172;42.646;23.344;2022-07-29T10:44:13;94606.84;;;31.54;36.27
12219;BME280;6172;42.646;23.344;2022-07-29T10:46:41;94604.69;;;31.68;35.77
12219;BME280;6172;42.646;23.344;2022-07-29T10:49:12;94596.66;;;31.79;36.45
12219;BME280;6172;42.646;23.344;2022-07-29T10:52:09;94609.66;;;31.82;37.16
12219;BME280;6172;42.646;23.344;2022-07-29T10:54:48;94589.84;;;31.67;35.89
12219;BME280;6172;42.646;23.344;2022-07-29T10:57:20;94607.00;;;31.28;35.64
12219;BME280;6172;42.646;23.344;2022-07-29T10:59:49;94600.22;;;30.83;37.01
12219;BME280;6172;42.646;23.344;2022-07-29T11:02:42;94597.44;;;31.11;36.33
12219;BME280;6172;42.646;23.344;2022-07-29T11:05:12;94589.16;;;31.05;36.85
12219;BME280;6172;42.646;23.344;2022-07-29T11:08:17;94591.50;;;30.40;37.22
12219;BME280;6172;42.646;23.344;2022-07-29T11:10:47;94591.09;;;30.90;37.03
12219;BME280;6172;42.646;23.344;2022-07-29T11:13:47;94585.63;;;31.12;37.25
12219;BME280;6172;42.646;23.344;2022-07-29T11:16:16;94577.69;;;31.24;36.57
12219;BME280;6172;42.646;23.344;2022-07-29T11:19:20;94587.38;;;30.95;37.28
12219;BME280;6172;42.646;23.344;2022-07-29T11:21:49;94587.00;;;30.44;37.14
12219;BME280;6172;42.646;23.344;2022-07-29T11:24:20;94575.81;;;31.06;35.61
12219;BME280;6172;42.646;23.344;2022-07-29T11:27:11;94574.72;;;31.09;34.87
12219;BME280;6172;42.646;23.344;2022-07-29T11:29:40;94577.47;;;30.81;35.81
12219;BME280;6172;42.646;23.344;2022-07-29T11:32:15;94565.44;;;30.60;36.13
12219;BME280;6172;42.646;23.344;2022-07-29T11:34:45;94566.44;;;30.83;35.89
12219;BME280;6172;42.646;23.344;2022-07-29T11:37:20;94584.88;;;31.12;35.39
12219;BME280;6172;42.646;23.344;2022-07-29T11:40:09;94575.81;;;31.06;34.91
12219;BME280;6172;42.646;23.344;2022-07-29T11:42:38;94568.22;;;30.39;35.98
12219;BME280;6172;42.646;23.344;2022-07-29T11:45:08;94563.56;;;29.95;36.79
12219;BME280;6172;42.646;23.344;2022-07-29T11:47:49;94569.66;;;30.32;36.23
12219;BME280;6172;42.646;23.344;2022-07-29T11:50:33;94565.88;;;29.83;36.95
12219;BME280;6172;42.646;23.344;2022-07-29T11:53:09;94558.75;;;30.29;36.73
12219;BME280;6172;42.646;23.344;2022-07-29T11:55:38;94555.59;;;30.66;35.73
12219;BME280;6172;42.646;23.344;2022-07-29T11:58:08;94552.16;;;30.81;34.88
12219;BME280;6172;42.646;23.344;2022-07-29T12:00:37;94558.34;;;31.00;34.36
12219;BME280;6172;42.646;23.344;2022-07-29T12:03:05;94556.94;;;30.73;35.12
12219;BME280;6172;42.646;23.344;2022-07-29T12:05:36;94549.63;;;30.70;35.50
12219;BME280;6172;42.646;23.344;2022-07-29T12:08:22;94553.75;;;30.56;34.72
12219;BME280;6172;42.646;23.344;2022-07-29T12:10:52;94555.00;;;30.47;34.43
12219;BME280;6172;42.646;23.344;2022-07-29T12:13:20;94550.00;;;30.53;34.99
12219;BME280;6172;42.646;23.344;2022-07-29T12:15:54;94549.75;;;30.64;34.76
12219;BME280;6172;42.646;23.344;2022-07-29T12:18:22;94545.69;;;30.73;34.31
12219;BME280;6172;42.646;23.344;2022-07-29T12:20:57;94546.72;;;31.03;34.13
12219;BME280;6172;42.646;23.344;2022-07-29T12:23:26;94550.09;;;31.22;33.67
12219;BME280;6172;42.646;23.344;2022-07-29T12:25:58;94550.03;;;31.43;33.35
12219;BME280;6172;42.646;23.344;2022-07-29T12:28:26;94542.53;;;31.45;33.39
12219;BME280;6172;42.646;23.344;2022-07-29T12:30:56;94551.03;;;31.53;33.67
12219;BME280;6172;42.646;23.344;2022-07-29T12:33:28;94538.47;;;31.26;33.76
12219;BME280;6172;42.646;23.344;2022-07-29T12:35:57;94542.44;;;31.30;33.44
12219;BME280;6172;42.646;23.344;2022-07-29T12:38:29;94539.66;;;31.38;33.42
12219;BME280;6172;42.646;23.344;2022-07-29T12:40:57;94536.47;;;31.34;33.43
12219;BME280;6172;42.646;23.344;2022-07-29T12:43:25;94538.56;;;30.92;33.93
12219;BME280;6172;42.646;23.344;2022-07-29T12:45:53;94539.81;;;30.84;33.82
12219;BME280;6172;42.646;23.344;2022-07-29T12:48:33;94531.69;;;31.01;34.19
12219;BME280;6172;42.646;23.344;2022-07-29T12:51:01;94537.06;;;30.71;34.32
12219;BME280;6172;42.646;23.344;2022-07-29T12:53:30;94535.38;;;30.96;34.41
12219;BME280;6172;42.646;23.344;2022-07-29T12:55:58;94526.94;;;31.16;33.51
12219;BME280;6172;42.646;23.344;2022-07-29T12:58:33;94518.09;;;30.92;33.25
12219;BME280;6172;42.646;23.344;2022-07-29T13:01:06;94512.19;;;31.03;33.33
12219;BME280;6172;42.646;23.344;2022-07-29T13:03:51;94515.91;;;30.77;34.18
12219;BME280;6172;42.646;23.344;2022-07-29T13:06:33;94518.94;;;31.00;33.65
12219;BME280;6172;42.646;23.344;2022-07-29T13:09:04;94504.84;;;31.00;33.47
12219;BME280;6172;42.646;23.344;2022-07-29T13:11:37;94500.13;;;30.74;33.94